BBC Polonia — V2EZ6 — position and weather

sailwx.info

Track history (hours):
 
Tides and Currents Weather Stations Pressure Air Temp Water Temp Dewpoint Dewpoint Depression Visibility Wind Speed Wind Dir Waves Ship Positions

BBC Polonia

Last reported at 2016-Jun-27 07:33 UTC. Time now 2016-Jun-30 07:00 UTC.
Position N 25°56' W 079°31'.

Length 123 m; draft 5.8 m.

Type: Cargo ship. MMSI: 305614000.

Date/timePositionNaut miles runAvg speedWind from/ knotsBaromVisibWave heightAir tempDewpointWater temp
2016-Jun-27 07:33N 25°56' W 079°31'1010.3
2016-Jun-27 06:33N 26°07' W 079°29'  
2016-Jun-23 12:33N 40°22' W 073°44'1110.9
2016-Jun-23 11:33N 40°29' W 073°55'1111.3
2016-Jun-23 10:33N 40°38' W 074°03'0 0.3
2016-Jun-23 09:31N 40°38' W 074°04'0 0.0
2016-Jun-23 08:31N 40°38' W 074°04'0 0.0
2016-Jun-23 07:31N 40°38' W 074°04'12 6.0
2016-Jun-23 05:27N 40°49' W 073°58'6 0.1
2016-Jun-21 01:33N 40°44' W 074°01'1211.5
2016-Jun-21 00:33N 40°32' W 074°01'1111.0
2016-Jun-20 23:33N 40°27' W 073°48'5 5.5
2016-Jun-20 22:33N 40°24' W 073°43'1110.5
2016-Jun-20 21:33N 40°18' W 073°31'1212.4
2016-Jun-20 20:33N 40°11' W 073°18'2511.8
2016-Jun-20 18:28N 40°07' W 072°46'7412.0
2016-Jun-20 12:15N 40°07' W 071°09'913.0
2016-Jun-20 11:33N 40°07' W 070°57'1313.3
2016-Jun-20 10:33N 40°07' W 070°40'3113.5
2016-Jun-20 08:13N 40°06' W 069°58'  
Track history (hours):
 
Tides and Currents Weather Stations Pressure Air Temp Water Temp Dewpoint Dewpoint Depression Visibility Wind Speed Wind Dir Waves Ship Positions

BBC Polonia

Last reported at 2016-Jun-27 07:33 UTC. Time now 2016-Jun-30 07:00 UTC.
Position N 25°56' W 079°31'.

Length 123 m; draft 5.8 m.

Type: Cargo ship. MMSI: 305614000.

Date/timePositionNaut miles runAvg speedWind from/ knotsBaromVisibWave heightAir tempDewpointWater temp
2016-Jun-27 07:33N 25°56' W 079°31'1010.3
2016-Jun-27 06:33N 26°07' W 079°29'  
2016-Jun-23 12:33N 40°22' W 073°44'1110.9
2016-Jun-23 11:33N 40°29' W 073°55'1111.3
2016-Jun-23 10:33N 40°38' W 074°03'0 0.3
2016-Jun-23 09:31N 40°38' W 074°04'0 0.0
2016-Jun-23 08:31N 40°38' W 074°04'0 0.0
2016-Jun-23 07:31N 40°38' W 074°04'12 6.0
2016-Jun-23 05:27N 40°49' W 073°58'6 0.1
2016-Jun-21 01:33N 40°44' W 074°01'1211.5
2016-Jun-21 00:33N 40°32' W 074°01'1111.0
2016-Jun-20 23:33N 40°27' W 073°48'5 5.5
2016-Jun-20 22:33N 40°24' W 073°43'1110.5
2016-Jun-20 21:33N 40°18' W 073°31'1212.4
2016-Jun-20 20:33N 40°11' W 073°18'2511.8
2016-Jun-20 18:28N 40°07' W 072°46'7412.0
2016-Jun-20 12:15N 40°07' W 071°09'913.0
2016-Jun-20 11:33N 40°07' W 070°57'1313.3
2016-Jun-20 10:33N 40°07' W 070°40'3113.5
2016-Jun-20 08:13N 40°06' W 069°58'  

Dump ship's entire track history